sensor_id;sensor_type;location;lat;lon;timestamp;P1;durP1;ratioP1;P2;durP2;ratioP2
12814;SDS011;6472;52.328;13.070;2024-01-10T00:01:07;24.67;;;11.37;;
12814;SDS011;6472;52.328;13.070;2024-01-10T00:03:35;24.17;;;10.17;;
12814;SDS011;6472;52.328;13.070;2024-01-10T00:06:05;18.23;;;11.23;;
12814;SDS011;6472;52.328;13.070;2024-01-10T00:08:33;23.63;;;10.90;;
12814;SDS011;6472;52.328;13.070;2024-01-10T00:11:01;24.87;;;11.13;;
12814;SDS011;6472;52.328;13.070;2024-01-10T00:13:31;22.67;;;11.33;;
12814;SDS011;6472;52.328;13.070;2024-01-10T00:15:59;25.40;;;12.20;;
12814;SDS011;6472;52.328;13.070;2024-01-10T00:18:27;50.20;;;15.57;;
12814;SDS011;6472;52.328;13.070;2024-01-10T00:20:56;31.83;;;12.43;;
12814;SDS011;6472;52.328;13.070;2024-01-10T00:23:26;22.13;;;11.53;;
12814;SDS011;6472;52.328;13.070;2024-01-10T00:25:55;27.13;;;12.30;;
12814;SDS011;6472;52.328;13.070;2024-01-10T00:28:23;23.17;;;10.13;;
12814;SDS011;6472;52.328;13.070;2024-01-10T00:30:51;30.30;;;14.40;;
12814;SDS011;6472;52.328;13.070;2024-01-10T00:33:19;21.70;;;10.37;;
12814;SDS011;6472;52.328;13.070;2024-01-10T00:35:47;31.43;;;11.03;;
12814;SDS011;6472;52.328;13.070;2024-01-10T00:38:15;25.60;;;11.47;;
12814;SDS011;6472;52.328;13.070;2024-01-10T00:40:45;17.17;;;10.97;;
12814;SDS011;6472;52.328;13.070;2024-01-10T00:43:13;28.03;;;12.10;;
12814;SDS011;6472;52.328;13.070;2024-01-10T00:45:41;25.60;;;11.33;;
12814;SDS011;6472;52.328;13.070;2024-01-10T00:48:09;27.70;;;12.93;;
12814;SDS011;6472;52.328;13.070;2024-01-10T00:50:38;33.27;;;13.83;;
12814;SDS011;6472;52.328;13.070;2024-01-10T00:53:06;30.90;;;14.00;;
12814;SDS011;6472;52.328;13.070;2024-01-10T00:55:34;31.70;;;12.97;;
12814;SDS011;6472;52.328;13.070;2024-01-10T00:58:04;30.97;;;14.30;;
12814;SDS011;6472;52.328;13.070;2024-01-10T01:00:33;25.97;;;11.50;;
12814;SDS011;6472;52.328;13.070;2024-01-10T01:03:01;22.63;;;11.67;;
12814;SDS011;6472;52.328;13.070;2024-01-10T01:05:29;29.10;;;15.63;;
12814;SDS011;6472;52.328;13.070;2024-01-10T01:07:57;24.90;;;11.10;;
12814;SDS011;6472;52.328;13.070;2024-01-10T01:10:25;26.50;;;12.60;;
12814;SDS011;6472;52.328;13.070;2024-01-10T01:12:54;33.73;;;14.10;;
12814;SDS011;6472;52.328;13.070;2024-01-10T01:15:23;23.70;;;12.63;;
12814;SDS011;6472;52.328;13.070;2024-01-10T01:17:51;36.10;;;13.30;;
12814;SDS011;6472;52.328;13.070;2024-01-10T01:20:20;30.27;;;12.90;;
12814;SDS011;6472;52.328;13.070;2024-01-10T01:22:48;27.07;;;12.63;;
12814;SDS011;6472;52.328;13.070;2024-01-10T01:25:16;36.80;;;15.17;;
12814;SDS011;6472;52.328;13.070;2024-01-10T01:27:44;32.60;;;13.13;;
12814;SDS011;6472;52.328;13.070;2024-01-10T01:30:12;25.43;;;11.33;;
12814;SDS011;6472;52.328;13.070;2024-01-10T01:32:42;28.10;;;13.17;;
12814;SDS011;6472;52.328;13.070;2024-01-10T01:35:10;24.57;;;13.37;;
12814;SDS011;6472;52.328;13.070;2024-01-10T01:37:39;25.60;;;12.03;;
12814;SDS011;6472;52.328;13.070;2024-01-10T01:40:07;32.13;;;12.63;;
12814;SDS011;6472;52.328;13.070;2024-01-10T01:42:36;31.77;;;14.93;;
12814;SDS011;6472;52.328;13.070;2024-01-10T01:45:05;32.57;;;14.83;;
12814;SDS011;6472;52.328;13.070;2024-01-10T01:47:33;24.70;;;11.00;;
12814;SDS011;6472;52.328;13.070;2024-01-10T01:50:04;21.83;;;11.80;;
12814;SDS011;6472;52.328;13.070;2024-01-10T01:52:34;38.03;;;14.53;;
12814;SDS011;6472;52.328;13.070;2024-01-10T01:55:03;27.63;;;12.07;;
12814;SDS011;6472;52.328;13.070;2024-01-10T01:57:33;20.03;;;11.27;;
12814;SDS011;6472;52.328;13.070;2024-01-10T02:00:02;16.63;;;10.20;;
12814;SDS011;6472;52.328;13.070;2024-01-10T02:02:31;25.03;;;12.90;;
12814;SDS011;6472;52.328;13.070;2024-01-10T02:05:00;25.60;;;11.97;;
12814;SDS011;6472;52.328;13.070;2024-01-10T02:07:30;20.93;;;10.97;;
12814;SDS011;6472;52.328;13.070;2024-01-10T02:09:58;22.90;;;12.93;;
12814;SDS011;6472;52.328;13.070;2024-01-10T02:12:26;23.07;;;11.57;;
12814;SDS011;6472;52.328;13.070;2024-01-10T02:14:55;25.43;;;12.33;;
12814;SDS011;6472;52.328;13.070;2024-01-10T02:17:24;34.83;;;12.37;;
12814;SDS011;6472;52.328;13.070;2024-01-10T02:20:07;40.83;;;16.37;;
12814;SDS011;6472;52.328;13.070;2024-01-10T02:22:37;24.63;;;12.37;;
12814;SDS011;6472;52.328;13.070;2024-01-10T02:25:07;37.10;;;12.90;;
12814;SDS011;6472;52.328;13.070;2024-01-10T02:27:36;23.90;;;11.63;;
12814;SDS011;6472;52.328;13.070;2024-01-10T02:30:05;24.13;;;11.53;;
12814;SDS011;6472;52.328;13.070;2024-01-10T02:32:35;30.03;;;13.77;;
12814;SDS011;6472;52.328;13.070;2024-01-10T02:35:04;31.43;;;13.10;;
12814;SDS011;6472;52.328;13.070;2024-01-10T02:37:33;26.43;;;12.93;;
12814;SDS011;6472;52.328;13.070;2024-01-10T02:40:02;25.87;;;12.83;;
12814;SDS011;6472;52.328;13.070;2024-01-10T02:42:32;28.20;;;13.00;;
12814;SDS011;6472;52.328;13.070;2024-01-10T02:45:00;31.53;;;15.20;;
12814;SDS011;6472;52.328;13.070;2024-01-10T02:47:28;31.17;;;15.50;;
12814;SDS011;6472;52.328;13.070;2024-01-10T02:49:56;24.43;;;14.13;;
12814;SDS011;6472;52.328;13.070;2024-01-10T02:52:25;43.07;;;14.80;;
12814;SDS011;6472;52.328;13.070;2024-01-10T02:54:53;37.73;;;13.70;;
12814;SDS011;6472;52.328;13.070;2024-01-10T02:57:21;28.87;;;13.23;;
12814;SDS011;6472;52.328;13.070;2024-01-10T02:59:50;36.87;;;16.23;;
12814;SDS011;6472;52.328;13.070;2024-01-10T03:02:19;31.23;;;12.60;;
12814;SDS011;6472;52.328;13.070;2024-01-10T03:04:49;32.17;;;13.63;;
12814;SDS011;6472;52.328;13.070;2024-01-10T03:07:17;30.47;;;12.37;;
12814;SDS011;6472;52.328;13.070;2024-01-10T03:09:45;33.70;;;14.13;;
12814;SDS011;6472;52.328;13.070;2024-01-10T03:12:13;22.70;;;13.37;;
12814;SDS011;6472;52.328;13.070;2024-01-10T03:14:41;32.33;;;14.47;;
12814;SDS011;6472;52.328;13.070;2024-01-10T03:17:12;24.67;;;12.13;;
12814;SDS011;6472;52.328;13.070;2024-01-10T03:19:41;29.90;;;12.83;;
12814;SDS011;6472;52.328;13.070;2024-01-10T03:22:10;33.03;;;14.23;;
12814;SDS011;6472;52.328;13.070;2024-01-10T03:24:41;26.10;;;11.50;;
12814;SDS011;6472;52.328;13.070;2024-01-10T03:27:13;26.67;;;13.53;;
12814;SDS011;6472;52.328;13.070;2024-01-10T03:29:41;26.50;;;12.23;;
12814;SDS011;6472;52.328;13.070;2024-01-10T03:32:09;28.57;;;14.57;;
12814;SDS011;6472;52.328;13.070;2024-01-10T03:34:40;34.30;;;13.73;;
12814;SDS011;6472;52.328;13.070;2024-01-10T03:37:08;30.07;;;14.80;;
12814;SDS011;6472;52.328;13.070;2024-01-10T03:39:37;30.27;;;13.03;;
12814;SDS011;6472;52.328;13.070;2024-01-10T03:42:05;31.53;;;13.30;;
12814;SDS011;6472;52.328;13.070;2024-01-10T03:44:33;20.53;;;10.63;;
12814;SDS011;6472;52.328;13.070;2024-01-10T03:47:01;31.40;;;14.53;;
12814;SDS011;6472;52.328;13.070;2024-01-10T03:49:32;35.27;;;12.67;;
12814;SDS011;6472;52.328;13.070;2024-01-10T03:52:02;27.27;;;12.73;;
12814;SDS011;6472;52.328;13.070;2024-01-10T03:54:30;28.57;;;15.43;;
12814;SDS011;6472;52.328;13.070;2024-01-10T03:56:59;32.10;;;14.63;;
12814;SDS011;6472;52.328;13.070;2024-01-10T03:59:29;26.50;;;12.93;;
12814;SDS011;6472;52.328;13.070;2024-01-10T04:01:56;33.17;;;14.83;;
12814;SDS011;6472;52.328;13.070;2024-01-10T04:04:27;20.83;;;12.60;;
12814;SDS011;6472;52.328;13.070;2024-01-10T04:06:55;22.23;;;12.97;;
12814;SDS011;6472;52.328;13.070;2024-01-10T04:09:24;27.50;;;14.87;;
12814;SDS011;6472;52.328;13.070;2024-01-10T04:11:52;22.90;;;11.67;;
12814;SDS011;6472;52.328;13.070;2024-01-10T04:14:22;31.53;;;14.03;;
12814;SDS011;6472;52.328;13.070;2024-01-10T04:16:53;34.33;;;11.60;;
12814;SDS011;6472;52.328;13.070;2024-01-10T04:19:21;31.87;;;13.57;;
12814;SDS011;6472;52.328;13.070;2024-01-10T04:21:49;28.33;;;12.83;;
12814;SDS011;6472;52.328;13.070;2024-01-10T04:24:18;28.47;;;13.37;;
12814;SDS011;6472;52.328;13.070;2024-01-10T04:26:48;25.77;;;11.20;;
12814;SDS011;6472;52.328;13.070;2024-01-10T04:29:16;32.10;;;16.33;;
12814;SDS011;6472;52.328;13.070;2024-01-10T04:31:44;26.90;;;11.87;;
12814;SDS011;6472;52.328;13.070;2024-01-10T04:34:12;26.30;;;13.20;;
12814;SDS011;6472;52.328;13.070;2024-01-10T04:36:42;25.47;;;13.20;;
12814;SDS011;6472;52.328;13.070;2024-01-10T04:39:11;27.73;;;11.63;;
12814;SDS011;6472;52.328;13.070;2024-01-10T04:41:40;26.43;;;14.93;;
12814;SDS011;6472;52.328;13.070;2024-01-10T04:44:11;26.57;;;11.17;;
12814;SDS011;6472;52.328;13.070;2024-01-10T04:46:39;28.43;;;13.33;;
12814;SDS011;6472;52.328;13.070;2024-01-10T04:49:08;30.27;;;13.70;;
12814;SDS011;6472;52.328;13.070;2024-01-10T04:51:36;31.17;;;12.93;;
12814;SDS011;6472;52.328;13.070;2024-01-10T04:54:04;36.97;;;14.47;;
12814;SDS011;6472;52.328;13.070;2024-01-10T04:56:32;44.47;;;17.37;;
12814;SDS011;6472;52.328;13.070;2024-01-10T04:59:02;34.87;;;14.73;;
12814;SDS011;6472;52.328;13.070;2024-01-10T05:01:34;30.20;;;13.43;;
12814;SDS011;6472;52.328;13.070;2024-01-10T05:04:05;35.53;;;14.07;;
12814;SDS011;6472;52.328;13.070;2024-01-10T05:06:33;22.57;;;12.27;;
12814;SDS011;6472;52.328;13.070;2024-01-10T05:09:01;28.63;;;14.50;;
12814;SDS011;6472;52.328;13.070;2024-01-10T05:11:33;29.40;;;13.67;;
12814;SDS011;6472;52.328;13.070;2024-01-10T05:14:02;28.67;;;13.13;;
12814;SDS011;6472;52.328;13.070;2024-01-10T05:16:32;30.03;;;14.80;;
12814;SDS011;6472;52.328;13.070;2024-01-10T05:19:00;28.23;;;13.57;;
12814;SDS011;6472;52.328;13.070;2024-01-10T05:21:30;36.73;;;14.27;;
12814;SDS011;6472;52.328;13.070;2024-01-10T05:23:59;21.27;;;12.23;;
12814;SDS011;6472;52.328;13.070;2024-01-10T05:26:27;27.23;;;13.63;;
12814;SDS011;6472;52.328;13.070;2024-01-10T05:28:55;28.90;;;12.77;;
12814;SDS011;6472;52.328;13.070;2024-01-10T05:31:25;31.00;;;12.00;;
12814;SDS011;6472;52.328;13.070;2024-01-10T05:33:55;28.97;;;15.70;;
12814;SDS011;6472;52.328;13.070;2024-01-10T05:36:23;38.60;;;16.87;;
12814;SDS011;6472;52.328;13.070;2024-01-10T05:38:51;30.77;;;14.73;;
12814;SDS011;6472;52.328;13.070;2024-01-10T05:41:19;31.57;;;12.67;;
12814;SDS011;6472;52.328;13.070;2024-01-10T05:43:56;31.23;;;12.73;;
12814;SDS011;6472;52.328;13.070;2024-01-10T05:46:24;42.60;;;16.23;;
12814;SDS011;6472;52.328;13.070;2024-01-10T05:48:58;24.30;;;12.67;;
12814;SDS011;6472;52.328;13.070;2024-01-10T05:51:26;24.57;;;13.10;;
12814;SDS011;6472;52.328;13.070;2024-01-10T05:53:54;29.70;;;12.73;;
12814;SDS011;6472;52.328;13.070;2024-01-10T05:56:22;20.03;;;13.33;;
12814;SDS011;6472;52.328;13.070;2024-01-10T05:58:51;40.80;;;15.93;;
12814;SDS011;6472;52.328;13.070;2024-01-10T06:01:19;24.07;;;13.30;;
12814;SDS011;6472;52.328;13.070;2024-01-10T06:03:47;37.60;;;15.43;;
12814;SDS011;6472;52.328;13.070;2024-01-10T06:06:17;30.23;;;13.67;;
12814;SDS011;6472;52.328;13.070;2024-01-10T06:08:45;30.97;;;14.53;;
12814;SDS011;6472;52.328;13.070;2024-01-10T06:11:14;29.93;;;13.63;;
12814;SDS011;6472;52.328;13.070;2024-01-10T06:13:42;38.90;;;11.83;;
12814;SDS011;6472;52.328;13.070;2024-01-10T06:16:22;34.63;;;12.43;;
12814;SDS011;6472;52.328;13.070;2024-01-10T06:18:50;39.97;;;14.90;;
12814;SDS011;6472;52.328;13.070;2024-01-10T06:21:22;30.73;;;12.50;;
12814;SDS011;6472;52.328;13.070;2024-01-10T06:23:50;35.53;;;14.53;;
12814;SDS011;6472;52.328;13.070;2024-01-10T06:26:21;30.30;;;15.13;;
12814;SDS011;6472;52.328;13.070;2024-01-10T06:28:49;27.93;;;14.97;;
12814;SDS011;6472;52.328;13.070;2024-01-10T06:31:18;39.33;;;15.20;;
12814;SDS011;6472;52.328;13.070;2024-01-10T06:33:47;34.67;;;15.80;;
12814;SDS011;6472;52.328;13.070;2024-01-10T06:36:24;43.23;;;17.97;;
12814;SDS011;6472;52.328;13.070;2024-01-10T06:38:52;24.10;;;13.13;;
12814;SDS011;6472;52.328;13.070;2024-01-10T06:41:21;28.83;;;13.40;;
12814;SDS011;6472;52.328;13.070;2024-01-10T06:43:51;37.93;;;15.17;;
12814;SDS011;6472;52.328;13.070;2024-01-10T06:46:19;42.50;;;14.37;;
12814;SDS011;6472;52.328;13.070;2024-01-10T06:48:47;33.87;;;16.77;;
12814;SDS011;6472;52.328;13.070;2024-01-10T06:51:16;27.97;;;13.03;;
12814;SDS011;6472;52.328;13.070;2024-01-10T06:53:45;39.63;;;17.10;;
12814;SDS011;6472;52.328;13.070;2024-01-10T06:56:13;28.23;;;14.17;;
12814;SDS011;6472;52.328;13.070;2024-01-10T06:58:41;34.13;;;14.00;;
12814;SDS011;6472;52.328;13.070;2024-01-10T07:01:11;39.77;;;15.07;;
12814;SDS011;6472;52.328;13.070;2024-01-10T07:03:41;28.37;;;14.00;;
12814;SDS011;6472;52.328;13.070;2024-01-10T07:06:12;34.17;;;13.83;;
12814;SDS011;6472;52.328;13.070;2024-01-10T07:08:42;29.70;;;15.27;;
12814;SDS011;6472;52.328;13.070;2024-01-10T07:11:13;32.67;;;14.17;;
12814;SDS011;6472;52.328;13.070;2024-01-10T07:13:41;31.17;;;13.83;;
12814;SDS011;6472;52.328;13.070;2024-01-10T07:16:09;26.47;;;13.37;;
12814;SDS011;6472;52.328;13.070;2024-01-10T07:18:37;41.80;;;15.73;;
12814;SDS011;6472;52.328;13.070;2024-01-10T07:21:07;34.70;;;15.13;;
12814;SDS011;6472;52.328;13.070;2024-01-10T07:23:36;34.50;;;16.43;;
12814;SDS011;6472;52.328;13.070;2024-01-10T07:26:07;47.30;;;16.33;;
12814;SDS011;6472;52.328;13.070;2024-01-10T07:28:37;31.93;;;16.27;;
12814;SDS011;6472;52.328;13.070;2024-01-10T07:31:05;31.87;;;14.70;;
12814;SDS011;6472;52.328;13.070;2024-01-10T07:33:33;30.77;;;14.73;;
12814;SDS011;6472;52.328;13.070;2024-01-10T07:36:01;27.33;;;13.07;;
12814;SDS011;6472;52.328;13.070;2024-01-10T07:38:30;28.37;;;15.83;;
12814;SDS011;6472;52.328;13.070;2024-01-10T07:40:58;27.43;;;16.10;;
12814;SDS011;6472;52.328;13.070;2024-01-10T07:43:27;41.80;;;16.40;;
12814;SDS011;6472;52.328;13.070;2024-01-10T07:45:57;39.73;;;16.17;;
12814;SDS011;6472;52.328;13.070;2024-01-10T07:48:27;32.67;;;16.50;;
12814;SDS011;6472;52.328;13.070;2024-01-10T07:50:57;30.87;;;16.23;;
12814;SDS011;6472;52.328;13.070;2024-01-10T07:53:25;33.17;;;14.73;;
12814;SDS011;6472;52.328;13.070;2024-01-10T07:55:53;31.20;;;15.10;;
12814;SDS011;6472;52.328;13.070;2024-01-10T07:58:21;48.57;;;19.63;;
12814;SDS011;6472;52.328;13.070;2024-01-10T08:00:51;33.17;;;14.67;;
12814;SDS011;6472;52.328;13.070;2024-01-10T08:03:21;37.97;;;18.10;;
12814;SDS011;6472;52.328;13.070;2024-01-10T08:05:52;40.90;;;18.40;;
12814;SDS011;6472;52.328;13.070;2024-01-10T08:08:20;38.43;;;17.30;;
12814;SDS011;6472;52.328;13.070;2024-01-10T08:10:51;32.23;;;15.70;;
12814;SDS011;6472;52.328;13.070;2024-01-10T08:13:19;35.77;;;17.20;;
12814;SDS011;6472;52.328;13.070;2024-01-10T08:15:47;49.40;;;18.87;;
12814;SDS011;6472;52.328;13.070;2024-01-10T08:18:16;45.50;;;18.73;;
12814;SDS011;6472;52.328;13.070;2024-01-10T08:20:50;43.37;;;17.67;;
12814;SDS011;6472;52.328;13.070;2024-01-10T08:23:18;63.90;;;19.10;;
12814;SDS011;6472;52.328;13.070;2024-01-10T08:25:47;42.33;;;17.70;;
12814;SDS011;6472;52.328;13.070;2024-01-10T08:28:14;41.43;;;19.33;;
12814;SDS011;6472;52.328;13.070;2024-01-10T08:30:43;44.03;;;18.70;;
12814;SDS011;6472;52.328;13.070;2024-01-10T08:33:19;43.17;;;22.43;;
12814;SDS011;6472;52.328;13.070;2024-01-10T08:35:47;48.17;;;22.40;;
12814;SDS011;6472;52.328;13.070;2024-01-10T08:38:16;36.53;;;18.93;;
12814;SDS011;6472;52.328;13.070;2024-01-10T08:40:45;52.10;;;21.17;;
12814;SDS011;6472;52.328;13.070;2024-01-10T08:43:16;49.57;;;20.73;;
12814;SDS011;6472;52.328;13.070;2024-01-10T08:45:44;43.40;;;20.70;;
12814;SDS011;6472;52.328;13.070;2024-01-10T08:48:12;57.10;;;24.33;;
12814;SDS011;6472;52.328;13.070;2024-01-10T08:50:42;44.67;;;20.77;;
12814;SDS011;6472;52.328;13.070;2024-01-10T08:53:12;44.40;;;21.07;;
12814;SDS011;6472;52.328;13.070;2024-01-10T08:55:40;52.53;;;22.07;;
12814;SDS011;6472;52.328;13.070;2024-01-10T08:58:10;55.10;;;22.73;;
12814;SDS011;6472;52.328;13.070;2024-01-10T09:00:38;42.50;;;22.17;;
12814;SDS011;6472;52.328;13.070;2024-01-10T09:03:06;43.53;;;19.33;;
12814;SDS011;6472;52.328;13.070;2024-01-10T09:05:35;44.10;;;22.90;;
12814;SDS011;6472;52.328;13.070;2024-01-10T09:08:03;39.83;;;19.80;;
12814;SDS011;6472;52.328;13.070;2024-01-10T09:10:35;53.20;;;22.03;;
12814;SDS011;6472;52.328;13.070;2024-01-10T09:13:04;51.37;;;21.97;;
12814;SDS011;6472;52.328;13.070;2024-01-10T09:15:35;54.90;;;22.83;;
12814;SDS011;6472;52.328;13.070;2024-01-10T09:18:03;54.03;;;23.43;;
12814;SDS011;6472;52.328;13.070;2024-01-10T09:20:32;61.33;;;23.83;;
12814;SDS011;6472;52.328;13.070;2024-01-10T09:23:00;58.60;;;25.30;;
12814;SDS011;6472;52.328;13.070;2024-01-10T09:25:28;52.50;;;22.97;;
12814;SDS011;6472;52.328;13.070;2024-01-10T09:28:01;65.77;;;25.07;;
12814;SDS011;6472;52.328;13.070;2024-01-10T09:30:30;67.43;;;28.30;;
12814;SDS011;6472;52.328;13.070;2024-01-10T09:32:59;62.30;;;26.20;;
12814;SDS011;6472;52.328;13.070;2024-01-10T09:35:29;62.20;;;27.10;;
12814;SDS011;6472;52.328;13.070;2024-01-10T09:37:59;59.17;;;26.83;;
12814;SDS011;6472;52.328;13.070;2024-01-10T09:40:31;63.83;;;26.37;;
12814;SDS011;6472;52.328;13.070;2024-01-10T09:43:05;50.43;;;24.10;;
12814;SDS011;6472;52.328;13.070;2024-01-10T09:45:35;68.83;;;28.43;;
12814;SDS011;6472;52.328;13.070;2024-01-10T09:48:05;65.53;;;25.97;;
12814;SDS011;6472;52.328;13.070;2024-01-10T09:50:38;54.47;;;25.20;;
12814;SDS011;6472;52.328;13.070;2024-01-10T09:53:12;56.27;;;24.70;;
12814;SDS011;6472;52.328;13.070;2024-01-10T09:55:50;52.77;;;24.57;;
12814;SDS011;6472;52.328;13.070;2024-01-10T09:58:24;49.30;;;23.60;;
12814;SDS011;6472;52.328;13.070;2024-01-10T10:01:06;52.90;;;23.43;;
12814;SDS011;6472;52.328;13.070;2024-01-10T10:03:36;49.17;;;21.70;;
12814;SDS011;6472;52.328;13.070;2024-01-10T10:06:09;48.90;;;22.77;;
12814;SDS011;6472;52.328;13.070;2024-01-10T10:08:53;44.13;;;20.60;;
12814;SDS011;6472;52.328;13.070;2024-01-10T10:11:22;46.53;;;20.07;;
12814;SDS011;6472;52.328;13.070;2024-01-10T10:13:52;39.47;;;20.13;;
12814;SDS011;6472;52.328;13.070;2024-01-10T10:16:30;46.63;;;19.77;;
12814;SDS011;6472;52.328;13.070;2024-01-10T10:18:58;43.67;;;21.47;;
12814;SDS011;6472;52.328;13.070;2024-01-10T10:21:26;45.10;;;21.47;;
12814;SDS011;6472;52.328;13.070;2024-01-10T10:23:59;40.87;;;20.50;;
12814;SDS011;6472;52.328;13.070;2024-01-10T10:26:31;42.23;;;17.80;;
12814;SDS011;6472;52.328;13.070;2024-01-10T10:29:02;42.67;;;19.47;;
12814;SDS011;6472;52.328;13.070;2024-01-10T10:31:33;41.40;;;19.20;;
12814;SDS011;6472;52.328;13.070;2024-01-10T10:34:02;41.50;;;18.13;;
12814;SDS011;6472;52.328;13.070;2024-01-10T10:36:32;36.20;;;16.00;;
12814;SDS011;6472;52.328;13.070;2024-01-10T10:39:01;50.17;;;18.43;;
12814;SDS011;6472;52.328;13.070;2024-01-10T10:41:38;32.07;;;16.70;;
12814;SDS011;6472;52.328;13.070;2024-01-10T10:44:09;32.67;;;17.30;;
12814;SDS011;6472;52.328;13.070;2024-01-10T10:46:39;32.93;;;16.93;;
12814;SDS011;6472;52.328;13.070;2024-01-10T10:49:11;34.93;;;14.67;;
12814;SDS011;6472;52.328;13.070;2024-01-10T10:51:41;32.23;;;15.47;;
12814;SDS011;6472;52.328;13.070;2024-01-10T10:54:10;30.57;;;15.60;;
12814;SDS011;6472;52.328;13.070;2024-01-10T10:56:42;35.83;;;16.10;;
12814;SDS011;6472;52.328;13.070;2024-01-10T10:59:15;37.83;;;16.50;;
12814;SDS011;6472;52.328;13.070;2024-01-10T11:01:48;40.87;;;17.67;;
12814;SDS011;6472;52.328;13.070;2024-01-10T11:04:19;33.30;;;14.03;;
12814;SDS011;6472;52.328;13.070;2024-01-10T11:06:48;31.70;;;15.83;;
12814;SDS011;6472;52.328;13.070;2024-01-10T11:09:17;34.13;;;15.27;;
12814;SDS011;6472;52.328;13.070;2024-01-10T11:11:52;31.03;;;15.50;;
12814;SDS011;6472;52.328;13.070;2024-01-10T11:14:50;28.70;;;13.70;;
12814;SDS011;6472;52.328;13.070;2024-01-10T11:17:40;30.23;;;15.40;;
12814;SDS011;6472;52.328;13.070;2024-01-10T11:20:37;33.80;;;13.40;;
12814;SDS011;6472;52.328;13.070;2024-01-10T11:23:39;32.03;;;13.37;;
12814;SDS011;6472;52.328;13.070;2024-01-10T11:26:14;27.83;;;14.37;;
12814;SDS011;6472;52.328;13.070;2024-01-10T11:28:43;32.97;;;14.10;;
12814;SDS011;6472;52.328;13.070;2024-01-10T11:31:26;25.33;;;13.63;;
12814;SDS011;6472;52.328;13.070;2024-01-10T11:33:57;35.20;;;13.63;;
12814;SDS011;6472;52.328;13.070;2024-01-10T11:36:26;33.07;;;13.93;;
12814;SDS011;6472;52.328;13.070;2024-01-10T11:38:58;29.37;;;13.57;;
12814;SDS011;6472;52.328;13.070;2024-01-10T11:41:45;33.23;;;13.77;;
12814;SDS011;6472;52.328;13.070;2024-01-10T11:47:20;29.13;;;14.70;;
12814;SDS011;6472;52.328;13.070;2024-01-10T11:49:55;28.23;;;14.57;;
12814;SDS011;6472;52.328;13.070;2024-01-10T11:52:31;31.93;;;15.60;;
12814;SDS011;6472;52.328;13.070;2024-01-10T11:55:01;29.60;;;14.73;;
12814;SDS011;6472;52.328;13.070;2024-01-10T11:57:31;34.40;;;15.90;;
12814;SDS011;6472;52.328;13.070;2024-01-10T12:00:01;33.00;;;14.57;;
12814;SDS011;6472;52.328;13.070;2024-01-10T12:02:33;28.87;;;15.07;;
12814;SDS011;6472;52.328;13.070;2024-01-10T12:05:02;26.03;;;12.90;;
12814;SDS011;6472;52.328;13.070;2024-01-10T12:07:34;26.27;;;14.00;;
12814;SDS011;6472;52.328;13.070;2024-01-10T12:10:03;34.00;;;14.63;;
12814;SDS011;6472;52.328;13.070;2024-01-10T12:12:34;31.43;;;14.50;;
12814;SDS011;6472;52.328;13.070;2024-01-10T12:15:13;28.60;;;12.80;;
12814;SDS011;6472;52.328;13.070;2024-01-10T12:17:45;28.57;;;14.07;;
12814;SDS011;6472;52.328;13.070;2024-01-10T12:20:13;25.97;;;13.40;;
12814;SDS011;6472;52.328;13.070;2024-01-10T12:22:47;28.27;;;12.73;;
12814;SDS011;6472;52.328;13.070;2024-01-10T12:25:17;28.17;;;13.47;;
12814;SDS011;6472;52.328;13.070;2024-01-10T12:27:48;32.90;;;13.80;;
12814;SDS011;6472;52.328;13.070;2024-01-10T12:30:18;29.03;;;13.43;;
12814;SDS011;6472;52.328;13.070;2024-01-10T12:32:52;23.77;;;12.93;;
12814;SDS011;6472;52.328;13.070;2024-01-10T12:35:22;26.37;;;12.43;;
12814;SDS011;6472;52.328;13.070;2024-01-10T12:37:54;25.63;;;13.40;;
12814;SDS011;6472;52.328;13.070;2024-01-10T12:40:23;28.90;;;13.57;;
12814;SDS011;6472;52.328;13.070;2024-01-10T12:43:06;29.13;;;12.33;;
12814;SDS011;6472;52.328;13.070;2024-01-10T12:45:37;26.67;;;14.03;;
12814;SDS011;6472;52.328;13.070;2024-01-10T12:48:09;29.17;;;14.00;;
12814;SDS011;6472;52.328;13.070;2024-01-10T12:50:41;30.43;;;13.70;;
12814;SDS011;6472;52.328;13.070;2024-01-10T12:53:20;24.53;;;12.67;;
12814;SDS011;6472;52.328;13.070;2024-01-10T12:55:49;25.40;;;12.00;;
12814;SDS011;6472;52.328;13.070;2024-01-10T12:58:17;35.43;;;13.57;;
12814;SDS011;6472;52.328;13.070;2024-01-10T13:00:47;28.63;;;13.03;;
12814;SDS011;6472;52.328;13.070;2024-01-10T13:03:20;28.00;;;13.60;;
12814;SDS011;6472;52.328;13.070;2024-01-10T13:05:51;32.77;;;13.13;;
12814;SDS011;6472;52.328;13.070;2024-01-10T13:08:20;27.33;;;12.90;;
12814;SDS011;6472;52.328;13.070;2024-01-10T13:10:49;25.13;;;11.60;;
12814;SDS011;6472;52.328;13.070;2024-01-10T13:13:20;22.70;;;12.10;;
12814;SDS011;6472;52.328;13.070;2024-01-10T13:15:49;31.77;;;13.50;;
12814;SDS011;6472;52.328;13.070;2024-01-10T13:18:19;30.77;;;13.27;;
12814;SDS011;6472;52.328;13.070;2024-01-10T13:20:50;23.93;;;11.97;;
12814;SDS011;6472;52.328;13.070;2024-01-10T13:23:18;29.43;;;12.40;;
12814;SDS011;6472;52.328;13.070;2024-01-10T13:25:48;26.70;;;13.30;;
12814;SDS011;6472;52.328;13.070;2024-01-10T13:28:17;31.27;;;13.53;;
12814;SDS011;6472;52.328;13.070;2024-01-10T13:30:46;26.27;;;13.37;;
12814;SDS011;6472;52.328;13.070;2024-01-10T13:33:15;25.90;;;10.17;;
12814;SDS011;6472;52.328;13.070;2024-01-10T13:38:31;22.07;;;11.77;;
12814;SDS011;6472;52.328;13.070;2024-01-10T13:40:59;24.10;;;11.80;;
12814;SDS011;6472;52.328;13.070;2024-01-10T13:43:28;25.43;;;12.13;;
12814;SDS011;6472;52.328;13.070;2024-01-10T13:45:56;23.70;;;12.43;;
12814;SDS011;6472;52.328;13.070;2024-01-10T13:48:25;26.43;;;12.37;;
12814;SDS011;6472;52.328;13.070;2024-01-10T13:50:54;21.60;;;12.27;;
12814;SDS011;6472;52.328;13.070;2024-01-10T13:53:25;26.10;;;11.93;;
12814;SDS011;6472;52.328;13.070;2024-01-10T13:55:54;21.40;;;10.23;;
12814;SDS011;6472;52.328;13.070;2024-01-10T13:58:23;27.13;;;11.80;;
12814;SDS011;6472;52.328;13.070;2024-01-10T14:00:53;29.90;;;12.70;;
12814;SDS011;6472;52.328;13.070;2024-01-10T14:03:22;27.43;;;12.20;;
12814;SDS011;6472;52.328;13.070;2024-01-10T14:05:51;20.13;;;11.73;;
12814;SDS011;6472;52.328;13.070;2024-01-10T14:08:20;28.20;;;12.63;;
12814;SDS011;6472;52.328;13.070;2024-01-10T14:10:50;33.03;;;13.17;;
12814;SDS011;6472;52.328;13.070;2024-01-10T14:13:22;30.87;;;14.33;;
12814;SDS011;6472;52.328;13.070;2024-01-10T14:15:50;33.33;;;13.90;;
12814;SDS011;6472;52.328;13.070;2024-01-10T14:18:20;31.00;;;13.43;;
12814;SDS011;6472;52.328;13.070;2024-01-10T14:20:49;31.23;;;14.13;;
12814;SDS011;6472;52.328;13.070;2024-01-10T14:23:18;26.27;;;12.80;;
12814;SDS011;6472;52.328;13.070;2024-01-10T14:25:47;29.00;;;12.43;;
12814;SDS011;6472;52.328;13.070;2024-01-10T14:28:17;27.80;;;11.73;;
12814;SDS011;6472;52.328;13.070;2024-01-10T14:30:47;31.90;;;13.33;;
12814;SDS011;6472;52.328;13.070;2024-01-10T14:33:19;28.90;;;12.67;;
12814;SDS011;6472;52.328;13.070;2024-01-10T14:35:55;31.20;;;12.47;;
12814;SDS011;6472;52.328;13.070;2024-01-10T14:38:29;25.07;;;11.73;;
12814;SDS011;6472;52.328;13.070;2024-01-10T14:41:01;24.23;;;12.33;;
12814;SDS011;6472;52.328;13.070;2024-01-10T14:43:31;24.50;;;11.17;;